createdAt,value
2019-06-26T00:02:28.927Z,52.46
2019-06-26T00:07:32.374Z,52.37
2019-06-26T00:12:35.843Z,52.46
2019-06-26T00:17:39.322Z,52.46
2019-06-26T00:22:42.797Z,52.58
2019-06-26T00:27:46.263Z,52.63
2019-06-26T00:32:49.720Z,52.19
2019-06-26T00:37:53.494Z,52.30
2019-06-26T00:42:56.963Z,52.44
2019-06-26T00:48:00.456Z,52.34
2019-06-26T00:53:05.089Z,52.56
2019-06-26T00:58:08.590Z,52.49
2019-06-26T01:03:12.487Z,52.34
2019-06-26T01:08:15.940Z,52.69
2019-06-26T01:13:19.482Z,52.73
2019-06-26T01:18:22.991Z,52.93
2019-06-26T01:23:26.560Z,53.01
2019-06-26T01:28:30.034Z,53.17
2019-06-26T01:33:33.513Z,53.15
2019-06-26T01:38:37.313Z,53.16
2019-06-26T01:43:40.761Z,52.99
2019-06-26T01:48:44.255Z,53.03
2019-06-26T01:53:48.046Z,53.19
2019-06-26T01:58:51.547Z,53.11
2019-06-26T02:03:54.997Z,52.90
2019-06-26T02:08:58.484Z,53.20
2019-06-26T02:14:03.465Z,53.04
2019-06-26T02:19:08.583Z,53.07
2019-06-26T02:24:12.089Z,53.01
2019-06-26T02:29:15.664Z,53.20
2019-06-26T02:34:19.136Z,53.02
2019-06-26T02:39:22.878Z,53.08
2019-06-26T02:44:26.349Z,53.27
2019-06-26T02:49:31.434Z,52.94
2019-06-26T02:54:34.875Z,53.16
2019-06-26T02:59:38.351Z,53.21
2019-06-26T03:04:41.809Z,53.13
2019-06-26T03:09:45.264Z,53.10
2019-06-26T03:14:48.728Z,53.16
2019-06-26T03:19:52.488Z,53.15
2019-06-26T03:24:55.963Z,53.06
2019-06-26T03:29:59.411Z,52.95
2019-06-26T03:35:02.883Z,52.98
2019-06-26T03:40:07.832Z,52.95
2019-06-26T03:45:24.498Z,52.98
2019-06-26T03:50:17.055Z,53.05
2019-06-26T03:55:20.845Z,53.23
2019-06-26T04:00:39.830Z,53.29
2019-06-26T04:05:43.365Z,53.15
2019-06-26T04:10:46.819Z,53.12
2019-06-26T04:15:51.134Z,52.96
2019-06-26T04:20:54.625Z,53.04
2019-06-26T04:25:59.628Z,52.95
2019-06-26T04:31:03.187Z,52.89
2019-06-26T04:36:06.734Z,52.94
2019-06-26T04:41:10.496Z,52.86
2019-06-26T04:46:13.998Z,52.91
2019-06-26T04:51:17.437Z,52.83
2019-06-26T04:56:20.917Z,52.73
2019-06-26T05:01:24.354Z,52.82
2019-06-26T05:06:27.837Z,52.78
2019-06-26T05:11:31.318Z,52.88
2019-06-26T05:16:34.880Z,52.61
2019-06-26T05:21:38.402Z,52.38
2019-06-26T05:26:41.868Z,52.48
2019-06-26T05:31:45.447Z,52.27
2019-06-26T05:36:48.919Z,52.27
2019-06-26T05:41:52.750Z,52.17
2019-06-26T05:46:56.524Z,52.09
2019-06-26T05:52:02.160Z,52.07
2019-06-26T05:57:05.672Z,51.65
2019-06-26T06:02:09.201Z,51.39
2019-06-26T06:07:12.675Z,51.41
2019-06-26T06:12:16.148Z,51.36
2019-06-26T06:17:19.619Z,51.24
2019-06-26T06:22:23.366Z,51.26
2019-06-26T06:27:26.804Z,51.18
2019-06-26T06:32:30.435Z,51.02
2019-06-26T06:37:33.892Z,51.04
2019-06-26T06:42:37.635Z,51.19
2019-06-26T06:47:41.152Z,51.54
2019-06-26T06:52:44.710Z,51.66
2019-06-26T06:57:48.180Z,51.57
2019-06-26T07:02:51.644Z,51.50
2019-06-26T07:07:55.133Z,50.86
2019-06-26T07:12:58.993Z,51.26
2019-06-26T07:18:02.446Z,51.47
2019-06-26T07:23:06.254Z,51.74
2019-06-26T07:28:09.934Z,51.32
2019-06-26T07:33:13.380Z,51.32
2019-06-26T07:38:16.929Z,50.57
2019-06-26T07:43:20.564Z,50.10
2019-06-26T07:48:24.120Z,49.79
2019-06-26T07:53:27.596Z,49.52
2019-06-26T07:58:31.152Z,49.54
2019-06-26T08:03:34.647Z,49.34
2019-06-26T08:08:38.116Z,49.19
2019-06-26T08:13:41.575Z,49.73
2019-06-26T08:18:45.064Z,49.50
2019-06-26T08:23:48.549Z,49.35
2019-06-26T08:28:52.000Z,49.24
2019-06-26T08:33:55.544Z,49.37
2019-06-26T08:38:59.653Z,49.40
2019-06-26T08:44:03.282Z,49.54
2019-06-26T08:49:21.098Z,49.55
2019-06-26T08:54:11.938Z,49.66
2019-06-26T08:59:15.433Z,50.17
2019-06-26T09:04:18.913Z,50.39
2019-06-26T09:09:22.396Z,50.66
2019-06-26T09:14:25.848Z,51.18
2019-06-26T09:19:29.407Z,51.48
2019-06-26T09:24:32.889Z,51.49
2019-06-26T09:29:36.353Z,51.44
2019-06-26T09:34:39.835Z,51.60
2019-06-26T09:39:43.552Z,51.48
2019-06-26T09:44:47.349Z,51.71
2019-06-26T09:49:50.796Z,51.64
2019-06-26T09:54:54.324Z,51.74
2019-06-26T09:59:57.889Z,52.00
2019-06-26T10:05:01.485Z,52.36
2019-06-26T10:10:06.107Z,52.64
2019-06-26T10:15:10.063Z,52.65
2019-06-26T10:20:14.863Z,52.81
2019-06-26T10:25:18.673Z,52.60
2019-06-26T10:30:22.687Z,52.64
2019-06-26T10:35:26.174Z,52.51
2019-06-26T10:40:29.829Z,52.26
2019-06-26T10:45:36.086Z,51.84
2019-06-26T10:50:48.575Z,51.73
2019-06-26T10:55:44.320Z,51.73
2019-06-26T11:00:47.913Z,51.29
2019-06-26T11:05:51.531Z,51.43
2019-06-26T11:10:55.230Z,51.51
2019-06-26T11:15:58.970Z,51.45
2019-06-26T11:21:02.785Z,50.55
2019-06-26T11:26:06.507Z,50.44
2019-06-26T11:31:10.046Z,50.49
2019-06-26T11:36:13.734Z,50.33
2019-06-26T11:41:17.379Z,50.18
2019-06-26T11:46:21.074Z,49.94
2019-06-26T11:51:24.719Z,50.27
2019-06-26T11:56:28.688Z,50.66
2019-06-26T12:01:32.167Z,50.82
2019-06-26T12:06:35.775Z,51.03
2019-06-26T12:11:39.563Z,51.11
2019-06-26T12:16:43.198Z,51.15
2019-06-26T12:21:46.914Z,51.16
2019-06-26T12:26:50.547Z,51.22
2019-06-26T12:31:54.251Z,51.39
2019-06-26T12:36:57.871Z,51.30
2019-06-26T12:42:01.665Z,51.29
2019-06-26T12:47:05.617Z,51.28
2019-06-26T12:52:09.561Z,51.20
2019-06-26T12:57:13.108Z,51.26
2019-06-26T13:02:16.751Z,51.17
2019-06-26T13:07:20.497Z,51.40
2019-06-26T13:12:24.115Z,51.30
2019-06-26T13:17:27.745Z,51.54
2019-06-26T13:22:31.491Z,51.56
2019-06-26T13:27:35.169Z,52.03
2019-06-26T13:32:38.678Z,52.05
2019-06-26T13:37:42.512Z,51.95
2019-06-26T13:42:46.335Z,51.98
2019-06-26T13:47:50.060Z,51.94
2019-06-26T13:52:53.627Z,51.87
2019-06-26T13:57:57.281Z,52.02
2019-06-26T14:03:01.113Z,51.76
2019-06-26T14:08:04.942Z,51.67
2019-06-26T14:13:08.765Z,51.72
2019-06-26T14:18:12.393Z,51.75
2019-06-26T14:23:15.946Z,51.87
2019-06-26T14:28:19.931Z,51.62
2019-06-26T14:33:23.655Z,51.74
2019-06-26T14:38:27.380Z,51.83
2019-06-26T14:43:30.997Z,51.44
2019-06-26T14:48:34.478Z,51.14
2019-06-26T14:53:38.216Z,51.15
2019-06-26T14:58:41.882Z,51.50
2019-06-26T15:03:45.663Z,51.48
2019-06-26T15:08:49.281Z,51.25
2019-06-26T15:13:52.925Z,51.49
2019-06-26T15:18:56.515Z,51.91
2019-06-26T15:24:00.240Z,52.00
2019-06-26T15:29:04.983Z,51.90
2019-06-26T15:34:08.627Z,51.88
2019-06-26T15:39:12.621Z,50.68
2019-06-26T15:44:16.339Z,51.44
2019-06-26T15:49:19.940Z,51.34
2019-06-26T15:54:23.579Z,51.12
2019-06-26T15:59:30.881Z,51.40
2019-06-26T16:04:35.128Z,51.06
2019-06-26T16:09:38.022Z,51.02
2019-06-26T16:14:41.840Z,51.07
2019-06-26T16:19:45.663Z,51.26
2019-06-26T16:24:49.298Z,51.62
2019-06-26T16:29:52.898Z,51.39
2019-06-26T16:34:57.549Z,51.16
2019-06-26T16:40:01.276Z,51.38
2019-06-26T16:45:06.808Z,52.17
2019-06-26T16:50:10.905Z,52.30
2019-06-26T16:55:14.978Z,51.97
2019-06-26T17:00:19.319Z,52.34
2019-06-26T17:05:23.064Z,52.28
2019-06-26T17:10:26.759Z,52.03
2019-06-26T17:15:30.384Z,52.10
2019-06-26T17:20:33.956Z,51.96
2019-06-26T17:25:37.636Z,51.83
2019-06-26T17:30:41.328Z,51.47
2019-06-26T17:35:45.047Z,50.83
2019-06-26T17:40:48.507Z,50.60
2019-06-26T17:45:52.128Z,51.47
2019-06-26T17:50:55.855Z,51.76
2019-06-26T17:55:59.519Z,51.61
2019-06-26T18:01:03.158Z,51.53
2019-06-26T18:06:07.368Z,51.32
2019-06-26T18:11:10.951Z,51.10
2019-06-26T18:16:14.609Z,50.59
2019-06-26T18:21:18.326Z,49.26
2019-06-26T18:26:22.031Z,49.00
2019-06-26T18:31:25.581Z,48.83
2019-06-26T18:36:33.520Z,48.83
2019-06-26T18:41:36.182Z,49.20
2019-06-26T18:46:39.955Z,48.36
2019-06-26T18:51:43.616Z,48.37
2019-06-26T18:56:47.282Z,48.21
2019-06-26T19:01:50.958Z,49.56
2019-06-26T19:06:54.586Z,48.85
2019-06-26T19:11:58.356Z,49.18
2019-06-26T19:17:02.130Z,49.45
2019-06-26T19:22:06.074Z,49.63
2019-06-26T19:27:09.666Z,48.30
2019-06-26T19:32:13.394Z,49.04
2019-06-26T19:37:17.020Z,49.65
2019-06-26T19:42:20.725Z,46.45
2019-06-26T19:47:24.560Z,46.62
2019-06-26T19:52:31.913Z,45.87
2019-06-26T19:57:35.159Z,45.84
2019-06-26T20:02:38.791Z,47.30
2019-06-26T20:07:42.597Z,47.25
2019-06-26T20:12:46.318Z,47.46
2019-06-26T20:17:49.956Z,46.98
2019-06-26T20:22:53.666Z,46.51
2019-06-26T20:27:57.490Z,45.45
2019-06-26T20:33:01.406Z,45.96
2019-06-26T20:38:06.621Z,45.69
2019-06-26T20:43:10.280Z,47.18
2019-06-26T20:48:13.899Z,47.52
2019-06-26T20:53:17.620Z,48.10
2019-06-26T20:58:21.453Z,48.37
2019-06-26T21:03:25.280Z,48.68
2019-06-26T21:08:29.641Z,48.98
2019-06-26T21:13:33.397Z,49.04
2019-06-26T21:18:37.046Z,49.39
2019-06-26T21:23:42.533Z,49.27
2019-06-26T21:28:46.113Z,49.63
2019-06-26T21:33:49.568Z,49.77
2019-06-26T21:38:53.254Z,49.76
2019-06-26T21:43:56.981Z,49.57
2019-06-26T21:49:00.613Z,49.64
2019-06-26T21:54:05.135Z,49.59
2019-06-26T21:59:08.778Z,49.58
2019-06-26T22:04:12.694Z,49.97
2019-06-26T22:09:17.011Z,49.92
2019-06-26T22:14:20.740Z,49.92
2019-06-26T22:19:24.216Z,49.96
2019-06-26T22:24:28.054Z,49.81
2019-06-26T22:29:31.792Z,49.61
2019-06-26T22:34:35.592Z,49.99
2019-06-26T22:39:39.441Z,49.84
2019-06-26T22:44:43.186Z,49.97
2019-06-26T22:49:46.844Z,49.97
2019-06-26T22:54:50.521Z,49.77
2019-06-26T22:59:54.233Z,49.69
2019-06-26T23:04:58.071Z,49.86
2019-06-26T23:10:01.850Z,49.91
2019-06-26T23:15:08.757Z,50.33
2019-06-26T23:20:13.434Z,50.12
2019-06-26T23:25:17.505Z,49.85
2019-06-26T23:30:21.558Z,50.47
2019-06-26T23:35:25.687Z,50.23
2019-06-26T23:40:29.342Z,49.92
2019-06-26T23:45:32.885Z,50.08
2019-06-26T23:50:36.856Z,50.04
2019-06-26T23:55:40.507Z,50.03
